createdAt,value
2023-04-17T00:04:52.900Z,55.23
2023-04-17T00:09:55.153Z,55.35
2023-04-17T00:14:57.328Z,55.17
2023-04-17T00:19:59.639Z,55.44
2023-04-17T00:25:02.096Z,55.69
2023-04-17T00:30:04.777Z,55.66
2023-04-17T00:35:07.617Z,55.46
2023-04-17T00:40:10.354Z,55.17
2023-04-17T00:45:12.660Z,55.23
2023-04-17T00:50:15.342Z,55.00
2023-04-17T00:55:18.384Z,55.12
2023-04-17T01:00:20.694Z,54.73
2023-04-17T01:05:23.126Z,54.69
2023-04-17T01:10:25.307Z,54.89
2023-04-17T01:15:27.534Z,55.05
2023-04-17T01:20:32.659Z,55.26
2023-04-17T01:25:34.940Z,54.96
2023-04-17T01:30:37.031Z,54.93
2023-04-17T01:35:39.157Z,54.91
2023-04-17T01:40:41.303Z,54.82
2023-04-17T01:45:43.460Z,54.47
2023-04-17T01:50:45.830Z,55.39
2023-04-17T01:55:47.942Z,55.05
2023-04-17T02:00:50.399Z,55.36
2023-04-17T02:05:55.942Z,56.03
2023-04-17T02:10:58.082Z,55.48
2023-04-17T02:16:00.316Z,55.76
2023-04-17T02:21:02.520Z,56.15
2023-04-17T02:26:04.950Z,56.64
2023-04-17T02:31:08.941Z,55.92
2023-04-17T02:36:11.389Z,55.82
2023-04-17T02:41:13.559Z,55.66
2023-04-17T02:46:16.242Z,55.78
2023-04-17T02:51:21.223Z,55.51
2023-04-17T02:56:23.420Z,55.49
2023-04-17T03:01:26.656Z,54.99
2023-04-17T03:06:28.938Z,55.45
2023-04-17T03:11:31.287Z,57.00
2023-04-17T03:16:33.436Z,56.19
2023-04-17T03:21:35.807Z,55.52
2023-04-17T03:26:37.985Z,55.14
2023-04-17T03:31:40.946Z,54.55
2023-04-17T03:36:43.094Z,56.18
2023-04-17T03:41:45.960Z,56.25
2023-04-17T03:46:48.151Z,56.55
2023-04-17T03:51:50.319Z,55.88
2023-04-17T03:56:52.589Z,56.49
2023-04-17T04:01:54.685Z,56.31
2023-04-17T04:06:58.273Z,56.28
2023-04-17T04:12:00.445Z,56.18
2023-04-17T04:17:02.924Z,55.64
2023-04-17T04:22:06.717Z,55.78
2023-04-17T04:27:09.698Z,55.89
2023-04-17T04:32:13.918Z,55.47
2023-04-17T04:37:16.882Z,55.36
2023-04-17T04:42:22.381Z,55.92
2023-04-17T04:47:24.936Z,56.65
2023-04-17T04:52:28.812Z,56.55
2023-04-17T04:57:30.967Z,56.11
2023-04-17T05:02:33.250Z,55.94
2023-04-17T05:07:35.544Z,56.11
2023-04-17T05:12:37.903Z,55.92
2023-04-17T05:17:40.201Z,55.96
2023-04-17T05:22:42.422Z,56.07
2023-04-17T05:27:44.665Z,56.15
2023-04-17T05:32:46.980Z,55.29
2023-04-17T05:37:49.240Z,54.91
2023-04-17T05:42:51.529Z,54.75
2023-04-17T05:47:53.922Z,54.69
2023-04-17T05:53:00.588Z,54.76
2023-04-17T05:58:10.550Z,54.44
2023-04-17T06:03:19.849Z,54.57
2023-04-17T06:08:22.321Z,54.15
2023-04-17T06:13:24.978Z,54.23
2023-04-17T06:18:27.217Z,53.72
2023-04-17T06:23:29.378Z,54.06
2023-04-17T06:28:32.598Z,53.94
2023-04-17T06:33:34.745Z,54.47
2023-04-17T06:38:36.871Z,54.93
2023-04-17T06:43:39.039Z,55.23
2023-04-17T06:48:41.147Z,55.65
2023-04-17T06:53:43.728Z,56.07
2023-04-17T06:58:46.091Z,56.41
2023-04-17T07:03:48.481Z,57.33
2023-04-17T07:08:52.120Z,58.12
2023-04-17T07:13:55.352Z,59.68
2023-04-17T07:18:57.569Z,59.78
2023-04-17T07:23:59.775Z,59.11
2023-04-17T07:29:02.194Z,59.58
2023-04-17T07:34:05.582Z,60.27
2023-04-17T07:39:08.446Z,60.29
2023-04-17T07:44:10.590Z,60.94
2023-04-17T07:49:13.856Z,60.86
2023-04-17T07:54:16.436Z,61.09
2023-04-17T07:59:18.574Z,60.80
2023-04-17T08:04:21.693Z,59.48
2023-04-17T08:09:24.003Z,58.18
2023-04-17T08:14:26.187Z,57.83
2023-04-17T08:19:28.902Z,57.67
2023-04-17T08:24:32.188Z,57.57
2023-04-17T08:29:34.604Z,56.77
2023-04-17T08:34:38.238Z,57.12
2023-04-17T08:39:40.823Z,59.31
2023-04-17T08:44:43.601Z,68.64
2023-04-17T08:49:46.458Z,72.43
2023-04-17T08:54:51.136Z,72.19
2023-04-17T08:59:53.728Z,72.22
2023-04-17T09:04:56.461Z,67.35
2023-04-17T09:09:58.977Z,65.13
2023-04-17T09:15:16.953Z,63.22
2023-04-17T09:20:19.203Z,62.76
2023-04-17T09:25:23.543Z,62.18
2023-04-17T09:30:27.341Z,68.60
2023-04-17T09:35:29.579Z,68.32
2023-04-17T09:40:42.542Z,67.60
2023-04-17T09:45:45.587Z,66.81
2023-04-17T09:50:49.249Z,65.35
2023-04-17T09:55:53.638Z,63.97
2023-04-17T10:00:56.119Z,61.75
2023-04-17T10:05:58.415Z,60.54
2023-04-17T10:11:08.510Z,59.69
2023-04-17T10:16:11.229Z,58.43
2023-04-17T10:21:24.632Z,58.10
2023-04-17T10:26:27.514Z,57.41
2023-04-17T10:32:07.573Z,55.57
2023-04-17T10:37:15.637Z,54.89
2023-04-17T10:42:22.261Z,53.68
2023-04-17T10:47:32.348Z,52.28
2023-04-17T10:52:40.842Z,51.46
2023-04-17T10:58:03.852Z,49.41
2023-04-17T11:03:07.509Z,48.02
2023-04-17T11:08:11.501Z,47.52
2023-04-17T11:13:15.255Z,47.04
2023-04-17T11:18:17.495Z,45.96
2023-04-17T11:23:20.305Z,45.05
2023-04-17T11:28:22.457Z,44.79
2023-04-17T11:33:24.788Z,44.13
2023-04-17T11:38:27.744Z,43.88
2023-04-17T11:43:31.222Z,43.60
2023-04-17T11:48:33.396Z,42.58
2023-04-17T11:53:36.586Z,42.74
2023-04-17T11:58:48.236Z,42.54
2023-04-17T12:03:50.911Z,41.91
2023-04-17T12:08:55.311Z,41.74
2023-04-17T12:13:58.203Z,41.48
2023-04-17T12:19:00.440Z,41.12
2023-04-17T12:24:03.200Z,40.44
2023-04-17T12:29:05.357Z,40.47
2023-04-17T12:34:07.594Z,40.31
2023-04-17T12:39:09.804Z,40.31
2023-04-17T12:44:12.237Z,40.00
2023-04-17T12:49:14.873Z,40.18
2023-04-17T12:54:17.134Z,40.49
2023-04-17T12:59:19.251Z,41.59
2023-04-17T13:04:21.640Z,42.50
2023-04-17T13:09:23.889Z,43.13
2023-04-17T13:14:26.245Z,44.85
2023-04-17T13:19:29.193Z,45.31
2023-04-17T13:24:31.853Z,45.37
2023-04-17T13:29:33.987Z,45.37
2023-04-17T13:40:05.529Z,44.76
2023-04-17T13:45:08.390Z,44.55
2023-04-17T13:50:11.115Z,44.49
2023-04-17T13:55:15.025Z,44.63
2023-04-17T14:00:19.127Z,44.57
2023-04-17T14:05:21.433Z,44.41
2023-04-17T14:10:24.169Z,44.64
2023-04-17T14:15:26.493Z,44.75
2023-04-17T14:20:29.192Z,45.42
2023-04-17T14:25:31.342Z,46.60
2023-04-17T14:30:33.799Z,47.08
2023-04-17T14:35:36.057Z,48.00
2023-04-17T14:40:39.060Z,48.51
2023-04-17T14:45:41.652Z,48.94
2023-04-17T14:50:43.833Z,48.81
2023-04-17T14:55:46.151Z,49.33
2023-04-17T15:00:48.545Z,49.52
2023-04-17T15:05:52.641Z,49.46
2023-04-17T15:10:54.843Z,49.52
2023-04-17T15:15:56.957Z,49.43
2023-04-17T15:20:59.179Z,49.93
2023-04-17T15:26:01.896Z,49.68
2023-04-17T15:31:04.198Z,49.09
2023-04-17T15:36:07.025Z,48.26
2023-04-17T15:41:10.600Z,48.62
2023-04-17T15:46:13.362Z,49.83
2023-04-17T15:51:15.599Z,50.64
2023-04-17T15:56:17.825Z,50.46
2023-04-17T16:01:20.103Z,50.82
2023-04-17T16:06:22.368Z,51.05
2023-04-17T16:11:24.649Z,51.38
2023-04-17T16:16:29.596Z,51.87
2023-04-17T16:21:32.301Z,52.36
2023-04-17T16:26:34.947Z,52.98
2023-04-17T16:31:37.130Z,53.79
2023-04-17T16:36:39.238Z,54.24
2023-04-17T16:41:41.486Z,53.97
2023-04-17T16:47:02.871Z,53.37
2023-04-17T16:52:06.164Z,53.71
2023-04-17T16:57:09.392Z,54.32
2023-04-17T17:02:11.771Z,55.51
2023-04-17T17:07:14.050Z,56.10
2023-04-17T17:12:16.275Z,56.60
2023-04-17T17:17:18.422Z,56.67
2023-04-17T17:22:20.593Z,57.24
2023-04-17T17:27:22.792Z,57.48
2023-04-17T17:32:24.942Z,57.79
2023-04-17T17:37:27.893Z,58.12
2023-04-17T17:42:30.353Z,58.08
2023-04-17T17:47:32.771Z,58.18
2023-04-17T17:52:34.928Z,58.28
2023-04-17T18:03:03.172Z,57.50
2023-04-17T18:08:05.474Z,57.63
2023-04-17T18:13:07.755Z,57.63
2023-04-17T18:18:10.765Z,57.70
2023-04-17T18:23:12.947Z,57.55
2023-04-17T18:28:15.052Z,57.64
2023-04-17T18:33:17.136Z,57.83
2023-04-17T18:38:19.392Z,58.08
2023-04-17T18:43:21.538Z,57.99
2023-04-17T18:48:24.742Z,57.84
2023-04-17T18:53:27.011Z,57.90
2023-04-17T18:58:29.135Z,57.90
2023-04-17T19:03:31.525Z,58.04
2023-04-17T19:08:33.973Z,58.12
2023-04-17T19:13:36.253Z,57.87
2023-04-17T19:18:38.691Z,57.94
2023-04-17T19:23:41.749Z,58.30
2023-04-17T19:28:43.992Z,58.43
2023-04-17T19:33:46.168Z,57.93
2023-04-17T19:38:48.407Z,58.21
2023-04-17T19:43:52.028Z,58.21
2023-04-17T19:48:54.294Z,58.05
2023-04-17T19:53:56.630Z,58.08
2023-04-17T19:59:02.406Z,58.13
2023-04-17T20:04:04.707Z,57.65
2023-04-17T20:09:07.098Z,57.82
2023-04-17T20:14:09.326Z,57.74
2023-04-17T20:19:11.653Z,57.41
2023-04-17T20:24:16.045Z,57.64
2023-04-17T20:29:18.243Z,57.23
2023-04-17T20:34:21.587Z,57.16
2023-04-17T20:39:23.812Z,57.00
2023-04-17T20:44:26.140Z,57.23
2023-04-17T20:49:28.215Z,57.44
2023-04-17T20:54:30.489Z,57.60
2023-04-17T20:59:33.724Z,57.14
2023-04-17T21:04:35.947Z,57.35
2023-04-17T21:09:38.344Z,57.62
2023-04-17T21:14:41.986Z,57.79
2023-04-17T21:19:46.360Z,57.58
2023-04-17T21:24:49.736Z,57.24
2023-04-17T21:29:52.573Z,57.55
2023-04-17T21:34:54.708Z,57.43
2023-04-17T21:39:56.906Z,57.65
2023-04-17T21:44:59.093Z,57.60
2023-04-17T21:50:01.231Z,57.54
2023-04-17T21:55:05.629Z,57.40
2023-04-17T22:00:11.942Z,57.46
2023-04-17T22:05:15.604Z,57.90
2023-04-17T22:10:17.787Z,58.00
2023-04-17T22:15:19.987Z,57.74
2023-04-17T22:20:22.282Z,57.91
2023-04-17T22:25:24.498Z,58.04
2023-04-17T22:30:26.620Z,58.43
2023-04-17T22:35:29.030Z,58.50
2023-04-17T22:40:31.269Z,58.48
2023-04-17T22:45:33.423Z,58.54
2023-04-17T22:50:35.552Z,58.72
2023-04-17T22:55:39.478Z,58.69
2023-04-17T23:00:41.570Z,58.88
2023-04-17T23:05:43.731Z,58.69
2023-04-17T23:10:45.995Z,58.83
2023-04-17T23:15:48.360Z,59.30
2023-04-17T23:20:50.679Z,59.67
2023-04-17T23:25:52.769Z,59.76
2023-04-17T23:30:55.066Z,60.32
2023-04-17T23:35:57.176Z,59.80
2023-04-17T23:40:59.412Z,60.05
2023-04-17T23:46:01.835Z,60.18
2023-04-17T23:56:32.602Z,60.30
